Time;durP1;ratioP1;P1;durP2;ratioP2;P2;SDS_P1;SDS_P2;PMS_P1;PMS_P2;Temp;Humidity;BMP_temperature;BMP_pressure;BME280_temperature;BME280_humidity;BME280_pressure;Samples;Min_cycle;Max_cycle;Signal;HPM_P1;HPM_P2
2021/04/27 00:02:12;;;;;;;10.05;5.60;;;231.20;2252.80;;;;;;5090826;28;20448;-67
2021/04/27 00:04:38;;;;;;;10.48;5.65;;;231.10;2252.80;;;;;;5090523;28;20020;-67
2021/04/27 00:07:03;;;;;;;12.68;7.00;;;231.10;2252.80;;;;;;5090834;28;20024;-66
2021/04/27 00:09:29;;;;;;;14.32;8.05;;;231.10;2252.80;;;;;;5090115;28;20028;-67
2021/04/27 00:11:55;;;;;;;11.63;6.70;;;231.10;2252.80;;;;;;5090998;28;20358;-68
2021/04/27 00:14:20;;;;;;;9.90;5.95;;;231.20;2252.80;;;;;;5090630;28;20020;-67
2021/04/27 00:16:46;;;;;;;8.18;4.65;;;231.20;2252.80;;;;;;5090564;28;20065;-65
2021/04/27 00:19:12;;;;;;;6.88;3.90;;;231.30;2252.80;;;;;;5086390;28;20421;-68
2021/04/27 00:21:38;;;;;;;7.72;4.10;;;231.30;2252.80;;;;;;5088799;28;20024;-67
2021/04/27 00:24:05;;;;;;;6.18;4.20;;;256.00;2252.80;;;;;;5090493;28;20034;-66
2021/04/27 00:26:32;;;;;;;7.78;4.22;;;256.00;2252.80;;;;;;5093150;28;20028;-67
2021/04/27 00:28:58;;;;;;;6.93;4.20;;;256.10;2252.80;;;;;;5094011;28;20032;-66
2021/04/27 00:31:24;;;;;;;7.75;4.00;;;256.10;2252.80;;;;;;5094183;28;20046;-66
2021/04/27 00:33:49;;;;;;;7.28;4.13;;;256.20;2252.80;;;;;;5093990;28;20488;-67
2021/04/27 00:36:15;;;;;;;8.25;4.20;;;256.20;2252.80;;;;;;5093945;28;20028;-67
2021/04/27 00:38:41;;;;;;;7.78;4.63;;;256.20;2252.80;;;;;;5093629;28;20020;-67
2021/04/27 00:41:09;;;;;;;6.57;4.35;;;256.20;2252.80;;;;;;5093765;28;20012;-66
2021/04/27 00:43:35;;;;;;;6.72;4.30;;;256.30;2252.80;;;;;;5093910;28;20036;-66
2021/04/27 00:46:00;;;;;;;8.52;4.40;;;256.20;2252.80;;;;;;5094117;28;20027;-67
2021/04/27 00:48:26;;;;;;;8.88;4.93;;;256.20;2252.80;;;;;;5093428;28;20476;-66
2021/04/27 00:50:52;;;;;;;8.77;5.00;;;256.20;2252.80;;;;;;5093836;28;20027;-66
2021/04/27 00:53:18;;;;;;;9.20;5.20;;;256.20;2252.80;;;;;;5093664;28;20126;-66
2021/04/27 00:55:43;;;;;;;7.82;4.68;;;256.20;2252.80;;;;;;5093429;28;20464;-67
2021/04/27 00:58:09;;;;;;;9.35;4.90;;;256.20;2252.80;;;;;;5094056;28;20085;-67
2021/04/27 01:00:41;;;;;;;7.55;4.70;;;256.20;2252.80;;;;;;5092954;28;20020;-67
2021/04/27 01:03:07;;;;;;;8.20;4.85;;;256.20;2252.80;;;;;;5093692;28;20020;-67
2021/04/27 01:05:36;;;;;;;8.05;4.60;;;256.20;2252.80;;;;;;5093053;28;20039;-67
2021/04/27 01:08:21;;;;;;;8.52;4.70;;;256.20;2252.80;;;;;;5093514;28;20047;-67
2021/04/27 01:10:50;;;;;;;7.30;4.50;;;256.20;2252.80;;;;;;5093412;28;20024;-67
2021/04/27 01:13:23;;;;;;;7.65;4.65;;;256.20;2252.80;;;;;;5093007;28;20055;-66
2021/04/27 01:15:50;;;;;;;7.70;4.75;;;256.10;2252.80;;;;;;5093190;28;20032;-68
2021/04/27 01:18:18;;;;;;;8.18;4.88;;;256.10;2252.80;;;;;;5093017;28;20472;-66
2021/04/27 01:20:48;;;;;;;8.60;5.00;;;231.30;2252.80;;;;;;5087178;28;20512;-66
2021/04/27 01:23:22;;;;;;;7.90;4.70;;;231.20;2252.80;;;;;;5093049;28;20055;-67
2021/04/27 01:25:59;;;;;;;9.63;5.32;;;231.20;2252.80;;;;;;5093039;28;20024;-67
2021/04/27 01:28:27;;;;;;;9.02;5.30;;;231.00;2252.80;;;;;;5092988;28;20036;-64
2021/04/27 01:30:53;;;;;;;8.30;4.78;;;231.10;2252.80;;;;;;5093026;28;20028;-66
2021/04/27 01:33:23;;;;;;;9.65;5.65;;;231.10;2252.80;;;;;;5092686;28;20542;-67
2021/04/27 01:35:50;;;;;;;17.70;8.75;;;231.00;2252.80;;;;;;5093049;28;20384;-66
2021/04/27 01:38:19;;;;;;;15.07;8.13;;;231.00;2252.80;;;;;;5091998;28;20026;-67
2021/04/27 01:40:45;;;;;;;14.57;8.23;;;231.00;2252.80;;;;;;5092524;28;20012;-66
2021/04/27 01:43:12;;;;;;;13.30;7.45;;;231.00;2252.80;;;;;;5092860;28;20048;-67
2021/04/27 01:45:38;;;;;;;16.05;8.82;;;231.00;2252.80;;;;;;5092436;28;20058;-67
2021/04/27 01:48:05;;;;;;;12.32;7.40;;;231.10;2252.80;;;;;;5092788;28;20106;-67
2021/04/27 01:50:32;;;;;;;12.65;6.80;;;231.00;2252.80;;;;;;5092054;28;20020;-65
2021/04/27 01:52:58;;;;;;;14.15;8.68;;;231.10;2252.80;;;;;;5092669;28;20110;-65
2021/04/27 01:55:25;;;;;;;12.15;7.53;;;231.10;2252.80;;;;;;5092551;28;20107;-67
2021/04/27 01:57:51;;;;;;;11.05;6.63;;;231.20;2252.80;;;;;;5092697;28;20376;-66
2021/04/27 02:00:20;;;;;;;12.45;6.07;;;231.20;2252.80;;;;;;5091909;28;20099;-67
2021/04/27 02:02:46;;;;;;;11.63;7.15;;;231.20;2252.80;;;;;;5092356;28;20103;-67
2021/04/27 02:05:16;;;;;;;12.35;7.28;;;231.20;2252.80;;;;;;5092477;28;20059;-65
2021/04/27 02:07:42;;;;;;;8.50;5.82;;;231.20;2252.80;;;;;;5092065;28;20047;-65
2021/04/27 02:10:12;;;;;;;10.43;5.72;;;231.20;2252.80;;;;;;5092099;28;20487;-66
2021/04/27 02:12:42;;;;;;;11.20;6.25;;;231.10;2252.80;;;;;;5091896;28;20031;-66
2021/04/27 02:15:12;;;;;;;11.48;6.53;;;231.10;2252.80;;;;;;5074038;28;20016;-70
2021/04/27 02:18:02;;;;;;;11.95;6.80;;;231.00;2252.80;;;;;;5092351;28;20154;-66
2021/04/27 02:20:29;;;;;;;10.32;6.15;;;231.00;2252.80;;;;;;5085891;28;20105;-67
2021/04/27 02:22:57;;;;;;;10.70;6.57;;;230.90;2252.80;;;;;;5091901;28;20031;-64
2021/04/27 02:25:23;;;;;;;8.48;5.68;;;230.90;2252.80;;;;;;5092078;28;20488;-66
2021/04/27 02:27:51;;;;;;;9.98;5.65;;;230.80;2252.80;;;;;;5091860;28;20035;-65
2021/04/27 02:30:20;;;;;;;11.38;5.90;;;230.80;2252.80;;;;;;5091532;28;20046;-65
2021/04/27 02:32:46;;;;;;;9.88;6.25;;;230.70;2252.80;;;;;;5091411;28;20472;-65
2021/04/27 02:35:15;;;;;;;11.10;5.93;;;230.70;2252.80;;;;;;5092014;28;20212;-66
2021/04/27 02:37:44;;;;;;;11.73;6.53;;;230.70;2252.80;;;;;;5091518;28;20020;-66
2021/04/27 02:40:12;;;;;;;9.73;6.50;;;230.70;2252.80;;;;;;5091757;28;20059;-66
2021/04/27 02:42:39;;;;;;;9.70;5.80;;;230.70;2252.80;;;;;;5091373;28;20046;-66
2021/04/27 02:45:07;;;;;;;9.90;6.38;;;230.70;2252.80;;;;;;5091983;28;20031;-66
2021/04/27 02:47:33;;;;;;;11.73;6.30;;;230.70;2252.80;;;;;;5091482;28;20024;-65
2021/04/27 02:49:59;;;;;;;11.80;5.82;;;230.70;2252.80;;;;;;5090337;28;20027;-66
2021/04/27 02:52:24;;;;;;;10.82;6.25;;;230.70;2252.80;;;;;;5091523;28;20027;-66
2021/04/27 02:54:50;;;;;;;10.45;6.70;;;230.70;2252.80;;;;;;5091217;28;20023;-66
2021/04/27 02:57:16;;;;;;;10.48;6.18;;;230.80;2252.80;;;;;;5091401;28;20385;-67
2021/04/27 02:59:41;;;;;;;9.48;5.72;;;230.80;2252.80;;;;;;5091163;28;20028;-67
2021/04/27 03:02:07;;;;;;;11.82;6.00;;;230.80;2252.80;;;;;;5091133;28;20087;-66
2021/04/27 03:04:33;;;;;;;8.93;5.47;;;230.80;2252.80;;;;;;5091505;28;20317;-65
2021/04/27 03:06:58;;;;;;;9.88;6.60;;;230.90;2252.80;;;;;;5091127;28;20099;-66
2021/04/27 03:09:24;;;;;;;15.18;8.35;;;230.90;2252.80;;;;;;5090990;28;20024;-66
2021/04/27 03:11:50;;;;;;;15.27;9.15;;;230.90;2252.80;;;;;;5091431;28;20031;-66
2021/04/27 03:14:15;;;;;;;10.82;6.30;;;230.80;2252.80;;;;;;5091264;28;20043;-66
2021/04/27 03:16:41;;;;;;;9.98;5.93;;;230.80;2252.80;;;;;;5091026;28;20023;-66
2021/04/27 03:19:07;;;;;;;10.70;7.10;;;230.70;2252.80;;;;;;5087705;28;20434;-66
2021/04/27 03:21:32;;;;;;;10.02;6.32;;;230.80;2252.80;;;;;;5084055;28;20024;-66
2021/04/27 03:23:58;;;;;;;10.23;6.20;;;230.80;2252.80;;;;;;5090996;28;20069;-69
2021/04/27 03:26:24;;;;;;;12.15;6.80;;;230.80;2252.80;;;;;;5091348;28;20079;-66
2021/04/27 03:28:50;;;;;;;13.52;7.55;;;230.80;2252.80;;;;;;5090978;28;20020;-66
2021/04/27 03:31:16;;;;;;;13.68;7.03;;;230.80;2252.80;;;;;;5090986;28;20503;-65
2021/04/27 03:33:42;;;;;;;13.20;7.00;;;230.80;2252.80;;;;;;5090644;28;20480;-65
2021/04/27 03:36:08;;;;;;;9.80;5.32;;;230.90;2252.80;;;;;;5072209;28;20074;-65
2021/04/27 03:38:34;;;;;;;11.88;6.05;;;230.90;2252.80;;;;;;5090671;28;20052;-64
2021/04/27 03:41:00;;;;;;;10.70;6.47;;;231.00;2252.80;;;;;;5090731;28;20031;-64
2021/04/27 03:43:26;;;;;;;11.68;6.97;;;231.00;2252.80;;;;;;5091004;28;20028;-67
2021/04/27 03:45:52;;;;;;;12.35;8.65;;;231.10;2252.80;;;;;;5091117;28;20033;-67
2021/04/27 03:48:19;;;;;;;21.08;13.27;;;231.10;2252.80;;;;;;5090756;28;20131;-67
2021/04/27 03:50:46;;;;;;;17.67;11.05;;;231.00;2252.80;;;;;;5090449;28;20036;-66
2021/04/27 03:53:13;;;;;;;31.05;22.40;;;231.00;2252.80;;;;;;5090771;28;20024;-67
2021/04/27 03:55:39;;;;;;;17.38;10.75;;;231.00;2252.80;;;;;;5090770;28;20366;-66
2021/04/27 03:58:05;;;;;;;17.25;9.23;;;231.10;2252.80;;;;;;5090821;28;20020;-67
2021/04/27 04:00:31;;;;;;;17.35;11.23;;;231.00;2252.80;;;;;;5091776;28;20489;-67
2021/04/27 04:02:57;;;;;;;32.45;21.10;;;231.10;2252.80;;;;;;5094357;28;20146;-67
2021/04/27 04:05:23;;;;;;;20.35;13.98;;;231.10;2252.80;;;;;;5094966;28;20032;-66
2021/04/27 04:07:49;;;;;;;11.02;7.43;;;231.00;2252.80;;;;;;5094374;28;20366;-67
2021/04/27 04:10:15;;;;;;;9.57;6.38;;;231.00;2252.80;;;;;;5094570;28;20409;-67
2021/04/27 04:12:42;;;;;;;9.80;6.40;;;231.10;2252.80;;;;;;5094540;28;20039;-68
2021/04/27 04:15:11;;;;;;;10.70;6.85;;;231.10;2252.80;;;;;;5094644;28;20047;-67
2021/04/27 04:17:38;;;;;;;10.55;6.80;;;231.10;2252.80;;;;;;5094479;28;20047;-68
2021/04/27 04:20:09;;;;;;;12.32;6.55;;;231.20;2252.80;;;;;;5086536;28;20093;-67
2021/04/27 04:22:36;;;;;;;10.35;6.50;;;231.20;2252.80;;;;;;5094415;28;20430;-65
2021/04/27 04:25:03;;;;;;;10.50;6.35;;;231.30;2252.80;;;;;;5094400;28;20055;-67
2021/04/27 04:27:29;;;;;;;10.60;6.45;;;231.30;2252.80;;;;;;5094302;28;20103;-66
2021/04/27 04:29:54;;;;;;;14.52;9.23;;;231.30;2252.80;;;;;;5075990;28;20524;-67
2021/04/27 04:32:20;;;;;;;10.55;7.43;;;231.30;2252.80;;;;;;5093993;28;20388;-67
2021/04/27 04:34:46;;;;;;;11.10;7.13;;;231.30;2252.80;;;;;;5093829;28;20029;-66
2021/04/27 04:37:11;;;;;;;12.02;6.88;;;256.00;2252.80;;;;;;5094294;28;20570;-68
2021/04/27 04:39:38;;;;;;;12.27;7.65;;;256.00;2252.80;;;;;;5093654;28;20028;-66
2021/04/27 04:42:03;;;;;;;13.23;7.20;;;256.00;2252.80;;;;;;5093973;28;20024;-67
2021/04/27 04:44:29;;;;;;;11.10;7.50;;;256.10;2252.80;;;;;;5093601;28;20026;-66
2021/04/27 04:46:56;;;;;;;12.38;7.57;;;256.00;2252.80;;;;;;5093857;28;20052;-68
2021/04/27 04:49:24;;;;;;;14.65;8.90;;;256.00;2252.80;;;;;;5093235;28;20027;-67
2021/04/27 04:51:51;;;;;;;15.40;8.40;;;256.10;2252.80;;;;;;5094390;28;20388;-67
2021/04/27 04:54:17;;;;;;;13.55;8.40;;;256.10;2252.80;;;;;;5093888;28;20020;-67
2021/04/27 04:56:43;;;;;;;13.70;8.32;;;256.20;2252.80;;;;;;5093804;28;20095;-67
2021/04/27 04:59:09;;;;;;;11.60;7.55;;;256.30;2252.80;;;;;;5093242;28;20107;-67
2021/04/27 05:01:34;;;;;;;14.43;8.13;;;256.30;2252.80;;;;;;5093009;28;20024;-70
2021/04/27 05:04:00;;;;;;;16.25;9.02;;;256.30;2252.80;;;;;;5093576;28;20020;-66
2021/04/27 05:06:27;;;;;;;17.50;9.80;;;256.30;2252.80;;;;;;5093354;28;20135;-67
2021/04/27 05:08:54;;;;;;;20.65;11.13;;;256.40;2252.80;;;;;;5093161;28;20024;-67
2021/04/27 05:11:20;;;;;;;16.65;10.00;;;256.50;2252.80;;;;;;5093071;28;20032;-67
2021/04/27 05:13:46;;;;;;;14.82;9.75;;;256.60;2252.80;;;;;;5092355;28;20194;-66
2021/04/27 05:16:12;;;;;;;16.38;10.43;;;256.70;2252.80;;;;;;5093386;28;20059;-68
2021/04/27 05:18:39;;;;;;;14.75;10.40;;;256.80;2252.80;;;;;;5092365;28;20027;-66
2021/04/27 05:21:06;;;;;;;12.63;8.90;;;256.90;2252.80;;;;;;5086279;28;20051;-67
2021/04/27 05:23:31;;;;;;;20.33;11.23;;;281.60;2278.40;;;;;;5093153;28;20024;-66
2021/04/27 05:25:58;;;;;;;18.42;11.18;;;281.70;2278.40;;;;;;5093385;28;20418;-67
2021/04/27 05:28:24;;;;;;;16.63;10.45;;;281.60;2278.40;;;;;;5092941;28;20032;-67
2021/04/27 05:30:50;;;;;;;12.52;8.90;;;281.60;2278.40;;;;;;5093053;28;20024;-67
2021/04/27 05:33:15;;;;;;;14.10;9.10;;;281.60;2278.40;;;;;;5092786;28;20089;-67
2021/04/27 05:35:41;;;;;;;12.95;8.25;;;281.70;2278.40;;;;;;5092710;28;20091;-67
2021/04/27 05:38:09;;;;;;;12.15;8.20;;;281.80;2278.40;;;;;;5093043;28;20024;-66
2021/04/27 05:40:35;;;;;;;11.27;7.47;;;281.90;2278.40;;;;;;5092213;28;20032;-67
2021/04/27 05:43:02;;;;;;;11.07;8.13;;;282.00;2278.40;;;;;;5092813;28;20048;-66
2021/04/27 05:45:28;;;;;;;12.32;7.75;;;281.80;2278.40;;;;;;5092632;28;20081;-67
2021/04/27 05:47:53;;;;;;;12.90;7.65;;;281.90;2278.40;;;;;;5092705;28;20063;-67
2021/04/27 05:50:19;;;;;;;11.75;7.13;;;282.20;2278.40;;;;;;5092356;28;20108;-66
2021/04/27 05:52:45;;;;;;;11.40;7.50;;;282.40;2278.40;;;;;;5092429;28;20099;-67
2021/04/27 05:55:11;;;;;;;10.57;7.47;;;307.20;2304.00;;;;;;5092634;28;20134;-67
2021/04/27 05:57:37;;;;;;;14.05;9.18;;;307.40;2304.00;;;;;;5092245;28;20028;-67
2021/04/27 06:00:04;;;;;;;12.63;7.60;;;307.50;2304.00;;;;;;5092372;28;20065;-68
2021/04/27 06:02:30;;;;;;;11.85;7.78;;;307.60;2304.00;;;;;;5092587;28;20069;-66
2021/04/27 06:04:55;;;;;;;29.65;24.60;;;307.60;2304.00;;;;;;5092167;28;20054;-67
2021/04/27 06:07:21;;;;;;;14.48;9.00;;;307.60;2304.00;;;;;;5092368;28;20552;-67
2021/04/27 06:09:47;;;;;;;12.27;8.93;;;307.20;2304.00;;;;;;5091842;28;20039;-67
2021/04/27 06:12:13;;;;;;;12.90;8.98;;;307.40;2304.00;;;;;;5092297;28;20032;-67
2021/04/27 06:14:38;;;;;;;15.25;13.65;;;307.50;2304.00;;;;;;5091886;28;20502;-67
2021/04/27 06:17:04;;;;;;;12.82;8.48;;;307.60;2304.00;;;;;;5092236;28;20020;-67
2021/04/27 06:19:30;;;;;;;12.27;7.78;;;308.00;2304.00;;;;;;5085368;28;20405;-70
2021/04/27 06:21:55;;;;;;;16.27;9.20;;;332.80;2329.60;;;;;;5091210;28;20031;-70
2021/04/27 06:24:21;;;;;;;18.33;12.07;;;332.90;2329.60;;;;;;5091781;28;20476;-66
2021/04/27 06:26:47;;;;;;;14.43;10.52;;;308.10;2304.00;;;;;;5091857;28;20046;-68
2021/04/27 06:29:12;;;;;;;16.42;12.27;;;333.60;2329.60;;;;;;5091397;28;20026;-69
2021/04/27 06:31:38;;;;;;;15.77;10.88;;;333.70;2329.60;;;;;;5092217;28;20074;-69
2021/04/27 06:34:05;;;;;;;21.70;14.45;;;358.60;2329.60;;;;;;5091844;28;20213;-70
2021/04/27 06:36:31;;;;;;;20.70;13.35;;;359.00;2329.60;;;;;;5092027;28;20540;-68
2021/04/27 06:38:57;;;;;;;28.95;16.02;;;359.30;2252.80;;;;;;5091510;28;20043;-67
2021/04/27 06:41:24;;;;;;;29.13;17.17;;;359.30;2124.80;;;;;;5073652;28;20060;-67
2021/04/27 06:43:50;;;;;;;52.13;32.72;;;384.40;2150.40;;;;;;5091960;28;20028;-70
2021/04/27 06:46:16;;;;;;;33.05;20.83;;;384.10;2176.00;;;;;;5090424;28;20034;-69
2021/04/27 06:48:42;;;;;;;26.20;16.58;;;384.30;2150.40;;;;;;5091378;28;20111;-69
2021/04/27 06:51:08;;;;;;;22.45;14.00;;;384.70;2099.20;;;;;;5091240;28;20090;-70
2021/04/27 06:53:35;;;;;;;24.52;13.98;;;409.60;2022.40;;;;;;5091103;28;20062;-69
2021/04/27 06:56:02;;;;;;;22.65;15.30;;;384.80;2022.40;;;;;;5091651;28;20028;-69
2021/04/27 06:58:28;;;;;;;17.00;12.02;;;384.50;2073.60;;;;;;5091036;28;20077;-69
2021/04/27 07:00:54;;;;;;;18.10;12.77;;;384.40;2073.60;;;;;;5090677;28;20028;-70
2021/04/27 07:03:20;;;;;;;16.48;12.13;;;384.70;2048.00;;;;;;5083857;28;20106;-68
2021/04/27 07:05:46;;;;;;;16.60;11.35;;;384.80;2048.00;;;;;;5091250;28;20070;-69
2021/04/27 07:08:12;;;;;;;15.73;10.43;;;384.80;1996.80;;;;;;5091359;28;20481;-69
2021/04/27 07:10:38;;;;;;;14.60;10.13;;;410.10;1971.20;;;;;;5090676;28;20031;-67
2021/04/27 07:13:04;;;;;;;16.45;11.00;;;435.20;1868.80;;;;;;5077082;28;20028;-65
2021/04/27 07:15:30;;;;;;;14.48;10.15;;;435.50;1843.20;;;;;;5070921;28;20055;-68
2021/04/27 07:17:55;;;;;;;12.32;9.13;;;435.60;1817.60;;;;;;5084860;28;20065;-69
2021/04/27 07:20:21;;;;;;;20.63;9.93;;;460.90;1792.00;;;;;;5085698;28;20520;-69
2021/04/27 07:22:47;;;;;;;25.85;10.38;;;461.10;1689.60;;;;;;5090523;28;20020;-67
2021/04/27 07:25:15;;;;;;;29.75;13.85;;;461.60;1638.40;;;;;;5090774;28;20055;-66
2021/04/27 07:27:41;;;;;;;23.60;11.63;;;461.60;1689.60;;;;;;5091313;28;20069;-67
2021/04/27 07:30:09;;;;;;;31.95;14.43;;;461.20;1689.60;;;;;;5090633;28;20012;-67
2021/04/27 07:32:35;;;;;;;30.95;10.93;;;461.20;1689.60;;;;;;5091220;28;20021;-66
2021/04/27 07:35:01;;;;;;;22.52;9.98;;;461.50;1664.00;;;;;;5080037;28;20101;-65
2021/04/27 07:37:27;;;;;;;31.30;9.77;;;461.70;1612.80;;;;;;5076986;28;20419;-68
2021/04/27 07:39:53;;;;;;;30.15;10.85;;;486.40;1612.80;;;;;;5076172;28;20032;-68
2021/04/27 07:42:19;;;;;;;29.85;10.50;;;486.50;1561.60;;;;;;5077118;28;20033;-68
2021/04/27 07:44:45;;;;;;;16.98;8.88;;;486.70;1536.00;;;;;;5076060;28;20040;-66
2021/04/27 07:47:10;;;;;;;21.08;9.10;;;487.00;1536.00;;;;;;5080479;28;20112;-67
2021/04/27 07:49:36;;;;;;;13.48;8.18;;;487.20;1510.40;;;;;;5089056;28;20020;-72
2021/04/27 07:52:03;;;;;;;27.45;10.20;;;487.00;1510.40;;;;;;5075148;28;20025;-68
2021/04/27 07:54:28;;;;;;;36.08;10.77;;;486.70;1536.00;;;;;;5074205;28;20027;-68
2021/04/27 07:56:55;;;;;;;37.47;10.95;;;486.60;1536.00;;;;;;5091557;28;20040;-67
2021/04/27 07:59:20;;;;;;;36.08;11.82;;;486.60;1510.40;;;;;;5080457;28;20036;-67
2021/04/27 08:01:46;;;;;;;43.38;11.73;;;461.60;1561.60;;;;;;5087786;28;20055;-67
2021/04/27 08:04:14;;;;;;;29.92;9.73;;;461.40;1587.20;;;;;;5074368;28;20039;-69
2021/04/27 08:06:39;;;;;;;38.08;12.30;;;461.50;1536.00;;;;;;5087428;28;20575;-66
2021/04/27 08:09:06;;;;;;;29.88;11.65;;;460.90;1612.80;;;;;;5079962;28;20119;-66
2021/04/27 08:11:33;;;;;;;26.23;11.57;;;435.80;1587.20;;;;;;5082844;28;20103;-67
2021/04/27 08:13:59;;;;;;;22.42;9.00;;;435.50;1638.40;;;;;;5075104;28;20583;-66
2021/04/27 08:16:25;;;;;;;22.80;10.52;;;435.40;1664.00;;;;;;5077850;28;20508;-66
2021/04/27 08:18:51;;;;;;;15.82;8.00;;;435.50;1638.40;;;;;;5080244;28;20039;-66
2021/04/27 08:21:17;;;;;;;17.75;7.70;;;435.60;1638.40;;;;;;5081186;28;20021;-65
2021/04/27 08:23:43;;;;;;;17.17;8.18;;;435.80;1638.40;;;;;;5077170;28;20044;-65
2021/04/27 08:26:11;;;;;;;17.73;7.68;;;435.80;1612.80;;;;;;5082165;28;20028;-66
2021/04/27 08:28:37;;;;;;;18.17;7.75;;;435.50;1638.40;;;;;;5079170;28;20566;-66
2021/04/27 08:31:03;;;;;;;19.25;8.27;;;435.70;1638.40;;;;;;5094144;28;20361;-65
2021/04/27 08:33:29;;;;;;;23.88;9.50;;;435.80;1664.00;;;;;;5083296;28;20386;-67
2021/04/27 08:35:55;;;;;;;25.67;10.45;;;436.10;1638.40;;;;;;5081050;28;20016;-66
2021/04/27 08:38:21;;;;;;;12.20;6.95;;;460.90;1689.60;;;;;;5094095;28;20024;-65
2021/04/27 08:40:47;;;;;;;49.97;35.85;;;461.10;1664.00;;;;;;5093576;28;20091;-66
2021/04/27 08:43:14;;;;;;;24.50;16.67;;;461.10;1638.40;;;;;;5084546;28;20222;-67
2021/04/27 08:45:41;;;;;;;14.38;9.95;;;461.40;1612.80;;;;;;5079468;28;20035;-66
2021/04/27 08:48:13;;;;;;;12.82;7.05;;;461.50;1612.80;;;;;;5092681;22;20763;-65
2021/04/27 08:50:40;;;;;;;17.95;11.50;;;461.50;1612.80;;;;;;5093459;28;20027;-66
2021/04/27 08:53:06;;;;;;;10.55;6.78;;;461.40;1612.80;;;;;;5093398;28;20020;-65
2021/04/27 08:55:33;;;;;;;12.60;7.22;;;461.50;1612.80;;;;;;5093570;28;20020;-66
2021/04/27 08:57:58;;;;;;;11.32;7.75;;;461.70;1587.20;;;;;;5084401;28;20376;-65
2021/04/27 09:00:25;;;;;;;9.50;7.22;;;486.50;1561.60;;;;;;5091283;28;20024;-67
2021/04/27 09:02:58;;;;;;;11.50;8.00;;;486.70;1536.00;;;;;;5093034;28;20465;-64
2021/04/27 09:05:27;;;;;;;13.40;8.32;;;486.80;1536.00;;;;;;5091628;28;20069;-66
2021/04/27 09:07:54;;;;;;;13.93;8.25;;;486.70;1561.60;;;;;;5092849;28;20481;-66
2021/04/27 09:10:25;;;;;;;14.43;8.88;;;487.00;1536.00;;;;;;5092887;28;20103;-66
2021/04/27 09:13:02;;;;;;;11.43;7.07;;;512.00;1561.60;;;;;;5092827;28;20012;-67
2021/04/27 09:15:41;;;;;;;12.98;8.07;;;512.30;1484.80;;;;;;5091866;28;20024;-65
2021/04/27 09:18:36;;;;;;;14.23;8.35;;;512.70;1510.40;;;;;;5093052;28;20020;-65
2021/04/27 09:21:06;;;;;;;12.30;8.50;;;537.60;1510.40;;;;;;5076097;28;20427;-66
2021/04/27 09:23:33;;;;;;;12.33;8.77;;;538.00;1459.20;;;;;;5093014;28;20061;-67
2021/04/27 09:26:14;;;;;;;19.52;9.80;;;537.90;1459.20;;;;;;5092875;28;20088;-66
2021/04/27 09:28:42;;;;;;;13.57;8.82;;;538.00;1510.40;;;;;;5087389;28;20023;-66
2021/04/27 09:31:31;;;;;;;13.40;8.90;;;538.00;1510.40;;;;;;5093062;28;20357;-64
2021/04/27 09:34:28;;;;;;;13.90;9.65;;;538.40;1433.60;;;;;;5089145;28;20541;-67
2021/04/27 09:37:00;;;;;;;13.75;9.88;;;563.30;1484.80;;;;;;5093078;28;20035;-66
2021/04/27 09:39:32;;;;;;;12.50;8.65;;;563.70;1433.60;;;;;;5091931;28;20081;-72
2021/04/27 09:42:12;;;;;;;13.25;10.10;;;564.00;1433.60;;;;;;5092994;28;20093;-70
2021/04/27 09:44:44;;;;;;;;;;;563.60;1459.20;;;;;;5080537;28;20020;-67
2021/04/27 09:47:19;;;;;;;14.88;10.60;;;563.60;1433.60;;;;;;5092872;28;19931;-68
2021/04/27 09:50:03;;;;;;;12.60;10.00;;;563.80;1408.00;;;;;;5079662;28;20048;-68
2021/04/27 09:52:31;;;;;;;13.77;10.30;;;588.80;1408.00;;;;;;5092035;28;20107;-69
2021/04/27 09:55:07;;;;;;;12.43;10.75;;;589.10;1382.40;;;;;;5092740;28;20051;-68
2021/04/27 09:57:36;;;;;;;15.73;10.75;;;589.20;1382.40;;;;;;5092014;28;20052;-69
2021/04/27 10:00:28;;;;;;;15.50;11.20;;;589.10;1382.40;;;;;;5092134;28;20012;-67
2021/04/27 10:03:00;;;;;;;15.35;11.63;;;589.50;1382.40;;;;;;5091988;28;20542;-68
2021/04/27 10:05:26;;;;;;;15.50;11.30;;;614.40;1331.20;;;;;;5089350;28;20028;-70
2021/04/27 10:07:54;;;;;;;20.48;15.18;;;614.80;1331.20;;;;;;5078651;28;20028;-67
2021/04/27 10:10:20;;;;;;;19.35;12.88;;;614.80;1305.60;;;;;;5091183;28;20035;-64
2021/04/27 10:12:47;;;;;;;14.48;12.13;;;614.60;1356.80;;;;;;5092175;28;20024;-68
2021/04/27 10:15:13;;;;;;;14.80;11.02;;;614.70;1331.20;;;;;;5087102;28;20040;-67
2021/04/27 10:17:41;;;;;;;12.30;10.23;;;614.40;1331.20;;;;;;5081517;28;20095;-68
2021/04/27 10:20:12;;;;;;;13.70;10.80;;;614.40;1331.20;;;;;;5076113;28;20020;-67
2021/04/27 10:22:43;;;;;;;21.42;14.95;;;614.70;1331.20;;;;;;5082387;28;20465;-67
2021/04/27 10:25:18;;;;;;;15.98;12.02;;;614.90;1305.60;;;;;;5092033;28;20369;-66
2021/04/27 10:27:44;;;;;;;59.92;33.25;;;614.90;1305.60;;;;;;5091803;28;20040;-67
2021/04/27 10:30:19;;;;;;;14.88;10.68;;;614.40;1331.20;;;;;;5091788;28;20111;-66
2021/04/27 10:33:01;;;;;;;14.32;10.10;;;614.50;1331.20;;;;;;5088827;28;20028;-67
2021/04/27 10:35:30;;;;;;;13.90;9.88;;;589.60;1331.20;;;;;;5091503;28;20032;-67
2021/04/27 10:38:16;;;;;;;17.27;11.38;;;589.30;1356.80;;;;;;5091794;28;20372;-67
2021/04/27 10:40:51;;;;;;;16.23;11.95;;;589.60;1356.80;;;;;;5091725;28;20024;-67
2021/04/27 10:43:23;;;;;;;19.05;13.95;;;589.60;1382.40;;;;;;5091259;28;20024;-65
2021/04/27 10:45:49;;;;;;;11.82;10.25;;;614.40;1382.40;;;;;;5091365;28;20028;-66
2021/04/27 10:48:45;;;;;;;14.82;10.50;;;614.40;1356.80;;;;;;5091194;28;20443;-67
2021/04/27 10:51:20;;;;;;;27.52;18.15;;;614.50;1331.20;;;;;;5070710;28;20459;-66
2021/04/27 10:54:15;;;;;;;15.73;11.30;;;589.60;1356.80;;;;;;5091669;28;20028;-66
2021/04/27 10:56:42;;;;;;;13.65;10.40;;;614.40;1382.40;;;;;;5068016;28;20484;-65
2021/04/27 10:59:13;;;;;;;14.02;10.93;;;614.50;1382.40;;;;;;5091365;28;20020;-67
2021/04/27 11:01:41;;;;;;;13.77;10.77;;;614.80;1331.20;;;;;;5088625;28;20481;-66
2021/04/27 11:04:28;;;;;;;12.18;10.43;;;614.80;1356.80;;;;;;5091350;28;20066;-67
2021/04/27 11:07:11;;;;;;;14.10;11.45;;;614.90;1356.80;;;;;;5088975;28;20053;-67
2021/04/27 11:09:36;;;;;;;15.65;11.82;;;614.40;1356.80;;;;;;5089952;28;20477;-68
2021/04/27 11:12:37;;;;;;;30.10;18.85;;;614.40;1382.40;;;;;;5091014;28;20070;-68
2021/04/27 11:15:08;;;;;;;12.48;10.80;;;614.40;1408.00;;;;;;5057472;28;20040;-68
2021/04/27 11:17:54;;;;;;;16.98;11.85;;;614.70;1382.40;;;;;;5079597;28;20043;-68
2021/04/27 11:20:49;;;;;;;14.30;11.32;;;614.60;1382.40;;;;;;5079128;28;20020;-68
2021/04/27 11:23:34;;;;;;;20.33;14.65;;;615.00;1356.80;;;;;;5088780;28;20024;-68
2021/04/27 11:26:01;;;;;;;18.40;11.85;;;614.80;1356.80;;;;;;5073537;28;20028;-66
2021/04/27 11:29:15;;;;;;;13.82;9.50;;;614.70;1356.80;;;;;;5079814;28;20101;-66
2021/04/27 11:32:05;;;;;;;13.93;9.57;;;614.60;1382.40;;;;;;5070479;28;20032;-67
2021/04/27 11:34:52;;;;;;;13.73;9.13;;;615.20;1331.20;;;;;;5079699;28;20023;-68
2021/04/27 11:37:26;;;;;;;19.45;12.02;;;640.10;1331.20;;;;;;5059639;28;20037;-67
2021/04/27 11:39:53;;;;;;;12.57;8.85;;;640.10;1331.20;;;;;;5070971;28;20020;-68
2021/04/27 11:42:37;;;;;;;15.55;10.30;;;640.50;1305.60;;;;;;5071064;28;20092;-66
2021/04/27 11:45:07;;;;;;;12.60;8.57;;;615.30;1331.20;;;;;;5071563;28;20028;-66
2021/04/27 11:47:36;;;;;;;10.27;7.93;;;615.20;1382.40;;;;;;5075129;28;20028;-68
2021/04/27 11:50:05;;;;;;;11.13;8.98;;;615.30;1382.40;;;;;;5077384;28;20049;-67
2021/04/27 11:53:04;;;;;;;13.55;8.60;;;615.30;1356.80;;;;;;5070853;28;20427;-67
2021/04/27 11:55:47;;;;;;;14.30;9.63;;;614.60;1408.00;;;;;;5069055;28;20036;-67
2021/04/27 11:58:22;;;;;;;14.88;9.57;;;614.80;1408.00;;;;;;5072321;28;20500;-68
2021/04/27 12:00:58;;;;;;;10.73;7.78;;;614.50;1433.60;;;;;;5074869;28;20066;-67
2021/04/27 12:03:26;;;;;;;10.02;7.13;;;615.10;1408.00;;;;;;5084207;28;20017;-66
2021/04/27 12:05:54;;;;;;;12.30;8.35;;;615.30;1382.40;;;;;;5072342;28;20024;-67
2021/04/27 12:08:25;;;;;;;13.57;8.77;;;615.00;1382.40;;;;;;5072670;28;20103;-67
2021/04/27 12:11:05;;;;;;;18.13;11.07;;;589.60;1459.20;;;;;;5071051;28;20473;-67
2021/04/27 12:13:32;;;;;;;12.02;7.82;;;614.40;1433.60;;;;;;5073589;28;20055;-67
2021/04/27 12:16:05;;;;;;;10.25;6.95;;;614.40;1408.00;;;;;;5073242;28;20020;-67